South Mason Valley, Nevada Weather observations

Data are for 10 minute period ending at time listed.
 Day   Time   Solar   Ave.   Ave.  Ave.  Vector  Max.   Baro.   Total    
  of    of     Rad.   Air    Rel.  Wind   Wind   Wind  Press.  Precip.   
Year   Day            Temp.  Hum.  Speed  Dir.   Gust                    
2014   (PST)  Kw/m2    F      %     mph   deg.    mph    mb.     in.     
-------------------------------------------------------------------------
 202    2:50   0.00   58.0    85    1.1    86     2.2   879.9    0.00 
 202    3:00   0.00   57.3    86    1.4   122     2.9   880.1    0.00 
 202    3:10   0.00   57.4    87    2.6   148     3.5   880.2    0.00 
 202    3:20   0.00   56.7    86    2.0   172     3.8   880.3    0.00 
 202    3:30   0.00   56.8    85    0.9   104     1.9   880.3    0.00 
 202    3:40   0.00   56.8    86    1.4   142     2.8   880.3    0.00 
 202    3:50   0.00   56.7    85    1.6   157     2.9   880.4    0.00 
 202    4:00   0.00   56.5    86    0.1   170     0.9   880.5    0.00 
 202    4:10   0.00   56.6    86    1.5   186     2.4   880.6    0.00 
 202    4:20   0.00   56.5    86    1.0   235     1.5   880.6    0.00 
 202    4:30   0.00   56.9    85    1.6   250     2.7   880.7    0.00 
 202    4:40   100.00  99999.0   99999  99999.0   99999   99999.0   99999.0   99999.00 
 202    4:50   0.01   57.0    85    0.8   214     1.7   880.9    0.00 
 202    5:00   0.01   56.8    85    1.0   186     1.8   880.9    0.00 
 202    5:10   0.04   57.2    86    1.3   192     2.6   881.1    0.00 
 202    5:20   0.06   58.5    84    1.0   146     2.6   881.2    0.00 
 202    5:30   0.07   59.0    83    0.7    81     1.2   881.4    0.00 
 202    5:40   0.13   59.7    83    0.3    29     1.3   881.4    0.00 
 202    5:50   0.18   62.5    79    1.0    74     2.2   881.5    0.00 
 202    6:00   0.19   65.2    73    0.9   173     2.4   881.5    0.00 
 202    6:10   0.15   64.9    72    0.3   170     1.5   881.6    0.00 
 202    6:20   0.27   66.2    70    0.4   249     1.2   881.8    0.00 
 202    6:30   0.19   65.9    72    0.6   311     1.7   881.9    0.00 
 202    6:40   0.31   66.4    72    0.4   290     1.3   882.1    0.00 
 202    6:50   0.37   69.0    66    0.7   222     1.8   882.2    0.00 
 202    7:00   0.36   70.6    61    1.0   263     2.9   882.3    0.00 
 202    7:10   0.36   69.1    62    2.2   276     3.9   882.4    0.00 
 202    7:20   0.36   69.2    63    2.2   300     3.6   882.5    0.00 
 202    7:30   0.34   70.0    59    0.8   309     2.8   882.6    0.00 
 202    7:40   0.36   70.7    58    0.9   284     2.7   882.8    0.00 
 202    7:50   0.39   70.5    60    1.8   334     5.7   882.8    0.00 
 202    8:00   0.44   70.5    60    2.9    43     5.2   882.8    0.00 
 202    8:10   0.39   70.8    58    3.2    69     6.4   882.9    0.00 
 202    8:20   0.47   71.2    58    1.8    52     3.7   882.9    0.00 
 202    8:30   0.61   72.2    56    3.7    48     7.6   882.9    0.00 
 202    8:40   0.70   72.8    54    2.6    69     6.1   883.0    0.00 
 202    8:50   0.77   74.0    51    3.2    80     8.2   883.1    0.00 
 202    9:00   0.73   73.4    52    3.7    81     7.5   883.2    0.00 
 202    9:10   0.59   73.1    51    3.9    53     7.1   883.2    0.00 
 202    9:20   0.61   72.9    52    2.8    63     5.8   883.3    0.00 
 202    9:30   0.62   74.1    51    2.1    73     5.5   883.3    0.00 
 202    9:40   0.68   73.9    50    3.3   127     5.6   883.2    0.00 
 202    9:50   0.83   74.4    49    4.1    95     7.4   883.2    0.00 
 202   10:00   0.85   75.1    50    3.3    48     9.9   883.2    0.00 
 202   10:10   0.88   75.7    48    3.2    46     6.8   883.1    0.00 
 202   10:20   0.89   75.8    46    3.3    75     7.7   883.1    0.00 
 202   10:30   0.90   76.1    45    3.5    91     6.8   883.0    0.00 
 202   10:40   0.91   76.8    44    2.9    80     7.7   883.0    0.00 
 202   10:50   0.92   76.7    44    4.4    72     9.6   882.9    0.00 
 202   11:00   0.93   76.9    43    2.9   259     8.0   882.8    0.00 
 202   11:10   0.94   77.3    42    3.0    66     9.3   882.8    0.00 
 202   11:20   0.95   78.1    44    3.7    26     8.5   882.7    0.00 
 202   11:30   0.96   77.2    42    3.2   340     8.8   882.7    0.00 
 202   11:40   0.96   78.3    39    3.3    60     6.9   882.6    0.00 
 202   11:50   0.94   79.1    39    2.1    69     5.7   882.5    0.00 
 202   12:00   0.95   79.2    36    2.9   103     7.7   882.4    0.00 
 202   12:10   0.96   79.2    36    3.0   162     7.1   882.2    0.00 
 202   12:20   0.96   79.7    37    4.0   103     8.7   882.0    0.00 
 202   12:30   0.96   80.2    38    3.7   159     8.2   881.9    0.00 
 202   12:40   0.95   80.7    41    3.5   309     9.0   881.9    0.00 
 202   12:50   0.94   80.3    36    2.7   172     6.9   881.8    0.00 
 202   13:00   0.93   80.8    37    2.5   202     6.4   881.8    0.00 
 202   13:10   0.92   80.9    38    3.6   196     4.9   881.6    0.00 
 202   13:20   0.91   81.1    36    3.5   255    11.4   881.4    0.00 
 202   13:30   0.90   81.3    38    3.8    53     9.5   881.2    0.00 
 202   13:40   0.89   82.0    32    2.6    20     5.1   881.1    0.00 
 202   13:50   0.87   82.1    37    3.4   330     7.2   880.9    0.00 
 202   14:00   0.86   83.0    33    3.4    33     8.8   880.8    0.00 
 202   14:10   0.83   82.8    35    3.3    35     7.1   880.7    0.00 
 202   14:20   0.81   83.2    33    3.4    30     6.4   880.6    0.00 
 202   14:30   0.80   83.0    33    3.3   314     5.4   880.4    0.00 
 202   14:40   0.77   83.8    33    2.6    30     6.3   880.3    0.00 
 202   14:50   0.76   83.1    36    4.5   312     8.8   880.3    0.00 
 202   15:00   0.73   83.7    34    3.4   318     6.6   880.3    0.00 
 202   15:10   0.72   83.0    35    4.9   338     7.9   880.1    0.00 
 202   15:20   0.69   83.9    32    2.7   292     5.2   880.0    0.00 
 202   15:30   0.67   85.0    28    1.6   360     3.9   879.9    0.00 
 202   15:40   0.63   85.4    28    1.9   326     3.4   879.8    0.00 
 202   15:50   0.47   85.0    30    2.2   262     4.1   879.7    0.00 
 202   16:00   0.31   83.7    31    2.3   281     5.2   879.6    0.00 
 202   16:10   0.18   82.5    35    0.6   324     2.0   879.6    0.00 
 202   16:20   0.35   81.9    39    2.8   331     5.6   879.6    0.00 
 202   16:30   0.54   82.1    39    4.1   336     8.3   879.6    0.00 
 202   16:40   0.31   82.3    37    4.0   314     7.2   879.6    0.00 
 202   16:50   0.18   79.2    44    4.3   309     7.0   879.7    0.00 
 202   17:00   0.12   77.8    43    5.1   318     7.9   879.7    0.00 
 202   17:10   0.10   77.0    42    6.5   321    10.1   879.5    0.00 
 202   17:20   0.11   76.8    43    5.5   317     8.4   879.5    0.00 
 202   17:30   0.11   76.7    42    6.1   311     8.6   879.4    0.00 
 202   17:40   0.16   76.8    44    4.1   300     7.0   879.7    0.00 
 202   17:50   0.26   78.7    43    5.2   318     9.2   879.8    0.00 
 202   18:00   0.23   79.0    40    7.0   314    13.0   879.9    0.00 
 202   18:10   0.18   78.7    40    7.5   314    11.8   879.9    0.00 
 202   18:20   0.12   77.5    43    7.3   326    13.8   879.9    0.00 
 202   18:30   0.12   77.7    41    9.4   336    15.2   879.8    0.00 
 202   18:40   0.07   77.1    42    8.9   328    15.5   879.9    0.00 
 202   18:50   0.02   75.6    44    7.7   325    11.0   880.0    0.00 
 202   19:00   0.01   74.7    45    6.9   318    11.9   880.1    0.00 
 202   19:10   0.01   73.8    47    7.9   311    13.6   880.2    0.00 
 202   19:20   0.01   72.4    53    7.7   306    13.3   880.3    0.00 
 202   19:30   0.00   71.5    55    6.1   305    10.2   880.4    0.00 
 202   19:40   0.00   70.2    57    6.7   305    10.5   880.4    0.00 
 202   19:50   0.00   70.0    57    6.0   305     8.4   880.5    0.00 
 202   20:00   0.00   69.2    59    4.7   304     7.7   880.7    0.00 
 202   20:10   0.00   68.2    62    4.7   302     7.7   880.9    0.00 
 202   20:20   0.00   68.5    61    5.1   311     8.5   881.2    0.00 
 202   20:30   0.00   68.8    60    4.5   318     7.9   881.3    0.00 
 202   20:40   0.00   68.8    60    6.0   315     8.3   881.4    0.00 
 202   20:50   0.00   68.3    62    4.9   307     7.4   881.4    0.00 
 202   21:00   0.00   67.1    66    4.3   303     5.9   881.4    0.00 
 202   21:10   0.00   66.8    67    4.4   300     6.7   881.6    0.00 
 202   21:20   0.00   67.7    63    4.6   306     7.1   881.7    0.00 
 202   21:30   0.00   68.2    62    3.9   325     5.5   881.7    0.00 
 202   21:40   0.00   67.2    66    3.3   343     4.7   881.9    0.00 
 202   21:50   0.00   66.3    67    4.8   322     7.0   881.8    0.00 
 202   22:00   0.00   66.6    65    4.4   331     5.6   881.7    0.00 
 202   22:10   0.00   66.6    64    4.5   326     7.0   881.7    0.00 
 202   22:20   0.00   66.4    65    4.4   323     6.4   881.8    0.00 
 202   22:30   0.00   65.7    67    4.1   308     5.9   881.8    0.00 
 202   22:40   0.00   65.4    68    3.6   322     5.6   881.9    0.00 
 202   22:50   0.00   64.9    69    3.1   326     5.0   882.0    0.00 
 202   23:00   0.00   65.3    67    3.9   324     7.2   882.1    0.00 
 202   23:10   0.00   65.5    65    1.5   325     3.2   882.1    0.00 
 202   23:20   0.00   64.7    66    2.5   334     3.7   882.1    0.00 
 202   23:30   0.00   64.1    66    3.6   334     4.7   882.2    0.00 
 202   23:40   0.00   63.6    67    3.6   336     5.0   882.3    0.00 
 202   23:50   0.00   63.4    67    3.3   344     4.1   882.3    0.00 
 203    0:00   0.00   63.7    66    3.2     3     4.2   882.2    0.00 
 203    0:10   0.00   63.5    68    3.5   348     4.5   882.2    0.00 
 203    0:20   0.00   63.0    69    3.1   322     4.3   882.3    0.00 
 203    0:30   0.00   62.9    72    3.1   314     4.1   882.3    0.00 
 203    0:40   0.00   62.6    71    2.7   336     3.6   882.2    0.00 
 203    0:50   0.00   62.2    72    3.4   334     4.2   882.2    0.00 
 203    1:00   0.00   61.4    74    3.3   329     3.8   882.2    0.00 
 203    1:10   0.00   61.7    73    2.8   346     3.9   882.2    0.00 
 203    1:20   0.00   62.3    70    2.1   328     3.1   882.3    0.00 
 203    1:30   0.00   62.8    70    2.1   273     2.7   882.5    0.00 
 203    1:40   0.00   61.2    75    2.6   291     3.8   882.4    0.00 
 203    1:50   0.00   60.1    79    3.1   280     3.9   882.4    0.00 
 203    2:00   0.00   59.5    80    2.6   278     3.2   882.4    0.00 
 203    2:10   0.00   59.3    80    3.4   282     4.9   882.4    0.00 
 203    2:20   0.00   58.8    82    3.6   289     5.0   882.4    0.00 
 203    2:30   0.00   58.2    84    2.5   305     3.3   882.5    0.00 
 203    2:40   0.00   58.2    85    2.5   283     3.4   882.4    0.00 

Return to south Mason Valley graphs page.


Western Regional Climate Center,wrcc@dri.edu